createdAt,value
2016-11-02T00:00:29.572Z,953.13
2016-11-02T00:01:29.590Z,953.12
2016-11-02T00:02:29.611Z,953.14
2016-11-02T00:03:29.631Z,953.1
2016-11-02T00:04:29.648Z,953.14
2016-11-02T00:05:29.668Z,953.15
2016-11-02T00:06:29.688Z,953.13
2016-11-02T00:07:29.706Z,953.15
2016-11-02T00:08:29.725Z,953.08
2016-11-02T00:09:29.745Z,953.09
2016-11-02T00:10:29.765Z,953.09
2016-11-02T00:11:29.782Z,953.1
2016-11-02T00:12:29.802Z,953.06
2016-11-02T00:13:29.821Z,953.08
2016-11-02T00:14:29.841Z,953.12
2016-11-02T00:15:29.859Z,953.08
2016-11-02T00:16:29.877Z,953.07
2016-11-02T00:17:29.898Z,953.06
2016-11-02T00:18:29.915Z,953.07
2016-11-02T00:19:29.942Z,953.04
2016-11-02T00:20:29.955Z,953.03
2016-11-02T00:21:29.975Z,953.07
2016-11-02T00:22:29.993Z,953.06
2016-11-02T00:23:30.012Z,953.06
2016-11-02T00:24:30.032Z,953.02
2016-11-02T00:25:30.049Z,953.05
2016-11-02T00:26:30.069Z,953.06
2016-11-02T00:27:30.088Z,953.03
2016-11-02T00:28:30.109Z,953.06
2016-11-02T00:29:30.126Z,953.09
2016-11-02T00:30:30.144Z,953.05
2016-11-02T00:31:30.163Z,953.06
2016-11-02T00:32:30.184Z,953.07
2016-11-02T00:33:30.203Z,953.06
2016-11-02T00:34:30.225Z,953.07
2016-11-02T00:35:30.242Z,953.12
2016-11-02T00:36:30.261Z,953.13
2016-11-02T00:37:30.279Z,953.15
2016-11-02T00:38:30.300Z,953.15
2016-11-02T00:39:30.318Z,953.14
2016-11-02T00:40:30.337Z,953.18
2016-11-02T00:41:30.356Z,953.14
2016-11-02T00:42:30.376Z,953.18
2016-11-02T00:43:30.394Z,953.18
2016-11-02T00:44:30.414Z,953.17
2016-11-02T00:45:30.433Z,953.16
2016-11-02T00:46:30.450Z,953.17
2016-11-02T00:47:30.471Z,953.21
2016-11-02T00:48:30.487Z,953.19
2016-11-02T00:49:30.507Z,953.2
2016-11-02T00:50:30.527Z,953.2
2016-11-02T00:51:30.545Z,953.19
2016-11-02T00:52:30.564Z,953.21
2016-11-02T00:53:30.583Z,953.21
2016-11-02T00:54:30.603Z,953.22
2016-11-02T00:55:30.620Z,953.23
2016-11-02T00:56:30.640Z,953.21
2016-11-02T00:57:30.660Z,953.2
2016-11-02T00:58:30.677Z,953.22
2016-11-02T00:59:30.699Z,953.21
2016-11-02T01:00:30.718Z,953.21
2016-11-02T01:01:30.736Z,953.22
2016-11-02T01:02:30.753Z,953.17
2016-11-02T01:03:30.774Z,953.15
2016-11-02T01:04:30.791Z,953.15
2016-11-02T01:05:30.810Z,953.18
2016-11-02T01:06:30.829Z,953.19
2016-11-02T01:07:30.847Z,953.15
2016-11-02T01:08:30.868Z,953.18
2016-11-02T01:09:30.886Z,953.17
2016-11-02T01:10:30.904Z,953.16
2016-11-02T01:11:30.924Z,953.15
2016-11-02T01:12:30.942Z,953.15
2016-11-02T01:13:30.960Z,953.16
2016-11-02T01:14:30.980Z,953.11
2016-11-02T01:15:30.999Z,953.14
2016-11-02T01:16:31.018Z,953.15
2016-11-02T01:17:31.037Z,953.17
2016-11-02T01:18:31.054Z,953.12
2016-11-02T01:19:31.075Z,953.16
2016-11-02T01:20:31.095Z,953.1
2016-11-02T01:21:31.114Z,953.14
2016-11-02T01:22:31.133Z,953.14
2016-11-02T01:23:31.153Z,953.17
2016-11-02T01:24:31.171Z,953.15
2016-11-02T01:25:31.190Z,953.12
2016-11-02T01:26:31.210Z,953.15
2016-11-02T01:27:31.229Z,953.14
2016-11-02T01:28:31.249Z,953.17
2016-11-02T01:29:31.267Z,953.2
2016-11-02T01:30:31.289Z,953.18
2016-11-02T01:31:31.305Z,953.23
2016-11-02T01:32:31.324Z,953.2
2016-11-02T01:33:31.344Z,953.18
2016-11-02T01:34:31.386Z,953.27
2016-11-02T01:35:31.382Z,953.26
2016-11-02T01:36:31.401Z,953.25
2016-11-02T01:37:31.421Z,953.28
2016-11-02T01:38:31.440Z,953.28
2016-11-02T01:39:31.457Z,953.24
2016-11-02T01:40:31.477Z,953.26
2016-11-02T01:41:31.497Z,953.27
2016-11-02T01:42:31.526Z,953.3
2016-11-02T01:43:31.535Z,953.32
2016-11-02T01:44:31.554Z,953.33
2016-11-02T01:45:31.573Z,953.31
2016-11-02T01:46:31.591Z,953.34
2016-11-02T01:47:31.612Z,953.3
2016-11-02T01:48:31.632Z,953.32
2016-11-02T01:49:31.668Z,953.3
2016-11-02T01:50:31.669Z,953.29
2016-11-02T01:51:31.689Z,953.28
2016-11-02T01:52:31.708Z,953.32
2016-11-02T01:53:31.726Z,953.28
2016-11-02T01:54:31.745Z,953.3
2016-11-02T01:55:31.766Z,953.3
2016-11-02T01:56:31.786Z,953.38
2016-11-02T01:57:31.826Z,953.34
2016-11-02T01:58:31.823Z,953.32
2016-11-02T01:59:31.842Z,953.3
2016-11-02T02:00:31.861Z,953.35
2016-11-02T02:01:31.881Z,953.38
2016-11-02T02:02:31.900Z,953.35
2016-11-02T02:03:31.920Z,953.4
2016-11-02T02:04:31.950Z,953.38
2016-11-02T02:05:31.956Z,953.37
2016-11-02T02:06:31.977Z,953.4
2016-11-02T02:07:31.998Z,953.35
2016-11-02T02:08:32.015Z,953.36
2016-11-02T02:09:32.035Z,953.36
2016-11-02T02:10:32.055Z,953.39
2016-11-02T02:11:32.073Z,953.39
2016-11-02T02:12:32.108Z,953.34
2016-11-02T02:13:32.113Z,953.34
2016-11-02T02:14:32.131Z,953.34
2016-11-02T02:15:32.150Z,953.3
2016-11-02T02:16:32.170Z,953.31
2016-11-02T02:17:32.191Z,953.29
2016-11-02T02:18:32.210Z,953.29
2016-11-02T02:19:32.232Z,953.32
2016-11-02T02:20:32.249Z,953.28
2016-11-02T02:21:32.266Z,953.28
2016-11-02T02:22:32.288Z,953.28
2016-11-02T02:23:32.306Z,953.25
2016-11-02T02:24:32.327Z,953.32
2016-11-02T02:25:32.346Z,953.33
2016-11-02T02:26:32.365Z,953.32
2016-11-02T02:27:32.391Z,953.32
2016-11-02T02:28:32.405Z,953.33
2016-11-02T02:29:32.423Z,953.27
2016-11-02T02:30:32.443Z,953.31
2016-11-02T02:31:32.462Z,953.29
2016-11-02T02:32:32.483Z,953.29
2016-11-02T02:33:32.503Z,953.29
2016-11-02T02:34:32.529Z,953.34
2016-11-02T02:35:32.541Z,953.28
2016-11-02T02:36:32.561Z,953.27
2016-11-02T02:37:32.580Z,953.33
2016-11-02T02:38:32.601Z,953.33
2016-11-02T02:39:32.619Z,953.3
2016-11-02T02:40:32.640Z,953.33
2016-11-02T02:41:32.660Z,953.33
2016-11-02T02:42:32.679Z,953.25
2016-11-02T02:43:32.698Z,953.28
2016-11-02T02:44:32.721Z,953.28
2016-11-02T02:45:32.739Z,953.25
2016-11-02T02:46:32.759Z,953.24
2016-11-02T02:47:32.779Z,953.25
2016-11-02T02:48:32.797Z,953.28
2016-11-02T02:49:32.817Z,953.24
2016-11-02T02:50:32.838Z,953.28
2016-11-02T02:51:32.858Z,953.23
2016-11-02T02:52:32.877Z,953.23
2016-11-02T02:53:32.897Z,953.24
2016-11-02T02:54:32.917Z,953.25
2016-11-02T02:55:32.937Z,953.24
2016-11-02T02:56:32.957Z,953.24
2016-11-02T02:57:32.981Z,953.25
2016-11-02T02:58:32.996Z,953.26
2016-11-02T02:59:33.015Z,953.28
2016-11-02T03:00:33.037Z,953.24
2016-11-02T03:01:33.057Z,953.24
2016-11-02T03:02:33.079Z,953.32
2016-11-02T03:03:33.117Z,953.29
2016-11-02T03:04:33.117Z,953.33
2016-11-02T03:05:33.136Z,953.33
2016-11-02T03:06:33.155Z,953.29
2016-11-02T03:07:33.175Z,953.33
2016-11-02T03:08:33.196Z,953.28
2016-11-02T03:09:33.215Z,953.23
2016-11-02T03:10:33.234Z,953.26
2016-11-02T03:11:33.255Z,953.26
2016-11-02T03:12:33.296Z,953.26
2016-11-02T03:13:33.295Z,953.28
2016-11-02T03:14:33.314Z,953.28
2016-11-02T03:15:33.334Z,953.24
2016-11-02T03:16:33.353Z,953.27
2016-11-02T03:17:33.373Z,953.26
2016-11-02T03:18:33.395Z,953.25
2016-11-02T03:19:33.414Z,953.18
2016-11-02T03:20:33.455Z,953.18
2016-11-02T03:21:33.454Z,953.16
2016-11-02T03:22:33.476Z,953.09
2016-11-02T03:23:33.495Z,953.13
2016-11-02T03:24:33.513Z,953.03
2016-11-02T03:25:33.533Z,953.07
2016-11-02T03:26:33.555Z,953.07
2016-11-02T03:27:33.581Z,953.06
2016-11-02T03:28:33.593Z,953.07
2016-11-02T03:29:33.614Z,953.09
2016-11-02T03:30:33.634Z,953.06
2016-11-02T03:31:33.654Z,953.12
2016-11-02T03:32:33.674Z,953.13
2016-11-02T03:33:33.695Z,953.09
2016-11-02T03:34:33.715Z,953.11
2016-11-02T03:35:33.737Z,953.1
2016-11-02T03:36:33.755Z,953.14
2016-11-02T03:37:33.773Z,953.14
2016-11-02T03:38:33.796Z,953.16
2016-11-02T03:39:33.814Z,953.14
2016-11-02T03:40:33.836Z,953.11
2016-11-02T03:41:33.854Z,953.12
2016-11-02T03:42:33.876Z,953.15
2016-11-02T03:43:33.896Z,953.15
2016-11-02T03:44:33.915Z,953.1
2016-11-02T03:45:33.935Z,953.08
2016-11-02T03:46:33.956Z,953.08
2016-11-02T03:47:33.974Z,953.03
2016-11-02T03:48:33.995Z,953.05
2016-11-02T03:49:34.015Z,953
2016-11-02T03:50:34.038Z,953.1
2016-11-02T03:51:34.054Z,953.13
2016-11-02T03:52:34.076Z,953.08
2016-11-02T03:53:34.097Z,953.05
2016-11-02T03:54:34.115Z,953.03
2016-11-02T03:55:34.137Z,953.17
2016-11-02T03:56:34.157Z,953.06
2016-11-02T03:57:34.176Z,953.09
2016-11-02T03:58:34.196Z,953.07
2016-11-02T03:59:34.217Z,953.08
2016-11-02T04:00:34.237Z,953.13
2016-11-02T04:01:34.256Z,953.13
2016-11-02T04:02:34.277Z,953.11
2016-11-02T04:03:34.296Z,953.14
2016-11-02T04:04:34.317Z,953.12
2016-11-02T04:05:34.337Z,953.11
2016-11-02T04:06:34.357Z,953.07
2016-11-02T04:07:34.377Z,953.12
2016-11-02T04:08:34.398Z,953.13
2016-11-02T04:09:34.417Z,953.06
2016-11-02T04:10:34.439Z,953.09
2016-11-02T04:11:34.457Z,953.04
2016-11-02T04:12:34.477Z,953.03
2016-11-02T04:13:34.518Z,952.99
2016-11-02T04:14:34.518Z,952.98
2016-11-02T04:15:34.537Z,953
2016-11-02T04:16:34.557Z,953.01
2016-11-02T04:17:34.579Z,953.01
2016-11-02T04:18:34.598Z,952.98
2016-11-02T04:19:34.618Z,952.93
2016-11-02T04:20:34.643Z,952.95
2016-11-02T04:21:34.659Z,952.9
2016-11-02T04:22:34.679Z,952.87
2016-11-02T04:23:34.699Z,952.93
2016-11-02T04:24:34.719Z,952.92
2016-11-02T04:25:34.739Z,952.9
2016-11-02T04:26:34.759Z,952.88
2016-11-02T04:27:34.778Z,952.89
2016-11-02T04:28:34.799Z,952.87
2016-11-02T04:29:34.819Z,952.89
2016-11-02T04:30:34.839Z,952.91
2016-11-02T04:31:34.860Z,952.92
2016-11-02T04:32:34.880Z,952.88
2016-11-02T04:33:34.902Z,952.84
2016-11-02T04:34:34.920Z,952.82
2016-11-02T04:35:34.943Z,952.83
2016-11-02T04:36:34.960Z,952.85
2016-11-02T04:37:34.980Z,952.85
2016-11-02T04:38:35.001Z,952.88
2016-11-02T04:39:35.021Z,952.82
2016-11-02T04:40:35.042Z,952.84
2016-11-02T04:41:35.060Z,952.84
2016-11-02T04:42:35.081Z,952.77
2016-11-02T04:43:35.101Z,952.81
2016-11-02T04:44:35.121Z,952.8
2016-11-02T04:45:35.140Z,952.77
2016-11-02T04:46:35.160Z,952.75
2016-11-02T04:47:35.180Z,952.77
2016-11-02T04:48:35.202Z,952.75
2016-11-02T04:49:35.220Z,952.72
2016-11-02T04:50:35.240Z,952.72
2016-11-02T04:51:35.261Z,952.69
2016-11-02T04:52:35.280Z,952.71
2016-11-02T04:53:35.300Z,952.65
2016-11-02T04:54:35.320Z,952.63
2016-11-02T04:55:35.341Z,952.72
2016-11-02T04:56:35.359Z,952.73
2016-11-02T04:57:35.381Z,952.71
2016-11-02T04:58:35.423Z,952.7
2016-11-02T04:59:35.420Z,952.74
2016-11-02T05:00:35.438Z,952.74
2016-11-02T05:01:35.460Z,952.7
2016-11-02T05:02:35.480Z,952.75
2016-11-02T05:03:35.499Z,952.76
2016-11-02T05:04:35.520Z,952.8
2016-11-02T05:05:35.539Z,952.76
2016-11-02T05:06:35.578Z,952.78
2016-11-02T05:07:35.579Z,952.81
2016-11-02T05:08:35.599Z,952.77
2016-11-02T05:09:35.619Z,952.74
2016-11-02T05:10:35.640Z,952.7
2016-11-02T05:11:35.659Z,952.71
2016-11-02T05:12:35.679Z,952.72
2016-11-02T05:13:35.702Z,952.65
2016-11-02T05:14:35.719Z,952.7
2016-11-02T05:15:35.739Z,952.71
2016-11-02T05:16:35.759Z,952.77
2016-11-02T05:17:35.780Z,952.72
2016-11-02T05:18:35.799Z,952.77
2016-11-02T05:19:35.819Z,952.82
2016-11-02T05:20:35.840Z,952.84
2016-11-02T05:21:35.862Z,952.83
2016-11-02T05:22:35.878Z,952.84
2016-11-02T05:23:35.899Z,952.85
2016-11-02T05:24:35.920Z,952.86
2016-11-02T05:25:35.938Z,952.91
2016-11-02T05:26:35.960Z,952.88
2016-11-02T05:27:35.979Z,952.88
2016-11-02T05:28:35.998Z,952.91
2016-11-02T05:29:36.019Z,952.9
2016-11-02T05:30:36.037Z,952.86
2016-11-02T05:31:36.059Z,952.86
2016-11-02T05:32:36.080Z,952.86
2016-11-02T05:33:36.099Z,952.86
2016-11-02T05:34:36.120Z,952.89
2016-11-02T05:35:36.140Z,952.88
2016-11-02T05:36:36.162Z,952.86
2016-11-02T05:37:36.178Z,952.85
2016-11-02T05:38:36.199Z,952.8
2016-11-02T05:39:36.219Z,952.78
2016-11-02T05:40:36.239Z,952.82
2016-11-02T05:41:36.258Z,952.8
2016-11-02T05:42:36.279Z,952.77
2016-11-02T05:43:36.299Z,952.84
2016-11-02T05:44:36.320Z,952.81
2016-11-02T05:45:36.339Z,952.8
2016-11-02T05:46:36.359Z,952.8
2016-11-02T05:47:36.379Z,952.81
2016-11-02T05:48:36.399Z,952.83
2016-11-02T05:49:36.419Z,952.81
2016-11-02T05:50:36.440Z,952.83
2016-11-02T05:51:36.462Z,952.81
2016-11-02T05:52:36.485Z,952.79
2016-11-02T05:53:36.500Z,952.87
2016-11-02T05:54:36.523Z,952.8
2016-11-02T05:55:36.540Z,952.79
2016-11-02T05:56:36.560Z,952.82
2016-11-02T05:57:36.587Z,952.81
2016-11-02T05:58:36.600Z,952.8
2016-11-02T05:59:36.641Z,952.81
2016-11-02T06:00:36.641Z,952.82
2016-11-02T06:01:36.661Z,952.84
2016-11-02T06:02:36.681Z,952.83
2016-11-02T06:03:36.701Z,952.83
2016-11-02T06:04:36.722Z,952.84
2016-11-02T06:05:36.741Z,952.84
2016-11-02T06:06:36.764Z,952.83
2016-11-02T06:07:36.782Z,952.8
2016-11-02T06:08:36.804Z,952.79
2016-11-02T06:09:36.822Z,952.86
2016-11-02T06:10:36.849Z,952.8
2016-11-02T06:11:36.863Z,952.87
2016-11-02T06:12:36.883Z,952.86
2016-11-02T06:13:36.903Z,952.9
2016-11-02T06:14:36.923Z,952.91
2016-11-02T06:15:36.942Z,952.85
2016-11-02T06:16:36.965Z,952.93
2016-11-02T06:17:36.983Z,952.89
2016-11-02T06:18:37.004Z,952.95
2016-11-02T06:19:37.024Z,952.95
2016-11-02T06:20:37.042Z,952.92
2016-11-02T06:21:37.064Z,952.96
2016-11-02T06:22:37.083Z,952.96
2016-11-02T06:23:37.103Z,952.92
2016-11-02T06:24:37.121Z,952.89
2016-11-02T06:25:37.144Z,952.91
2016-11-02T06:26:37.163Z,952.94
2016-11-02T06:27:37.182Z,952.95
2016-11-02T06:28:37.206Z,952.99
2016-11-02T06:29:37.225Z,952.89
2016-11-02T06:30:37.244Z,952.93
2016-11-02T06:31:37.265Z,952.94
2016-11-02T06:32:37.289Z,952.9
2016-11-02T06:33:37.303Z,952.89
2016-11-02T06:34:37.324Z,952.92
2016-11-02T06:35:37.342Z,952.89
2016-11-02T06:36:37.363Z,952.88
2016-11-02T06:37:37.385Z,952.88
2016-11-02T06:38:37.403Z,952.89
2016-11-02T06:39:37.423Z,952.87
2016-11-02T06:40:37.444Z,952.9
2016-11-02T06:41:37.465Z,952.86
2016-11-02T06:42:37.483Z,952.87
2016-11-02T06:43:37.504Z,952.86
2016-11-02T06:44:37.544Z,952.89
2016-11-02T06:45:37.546Z,952.85
2016-11-02T06:46:37.565Z,952.89
2016-11-02T06:47:37.590Z,952.89
2016-11-02T06:48:37.605Z,952.88
2016-11-02T06:49:37.624Z,952.85
2016-11-02T06:50:37.644Z,952.82
2016-11-02T06:51:37.665Z,952.85
2016-11-02T06:52:37.700Z,952.85
2016-11-02T06:53:37.706Z,952.86
2016-11-02T06:54:37.726Z,952.85
2016-11-02T06:55:37.746Z,952.87
2016-11-02T06:56:37.765Z,952.88
2016-11-02T06:57:37.785Z,952.86
2016-11-02T06:58:37.808Z,952.93
2016-11-02T06:59:37.828Z,952.93
2016-11-02T07:00:37.846Z,952.9
2016-11-02T07:01:37.866Z,952.9
2016-11-02T07:02:37.888Z,952.89
2016-11-02T07:03:37.907Z,952.87
2016-11-02T07:04:37.927Z,952.91
2016-11-02T07:05:37.948Z,952.91
2016-11-02T07:06:37.969Z,952.96
2016-11-02T07:07:37.997Z,952.96
2016-11-02T07:08:38.009Z,952.93
2016-11-02T07:09:38.030Z,952.96
2016-11-02T07:10:38.050Z,952.92
2016-11-02T07:11:38.069Z,952.95
2016-11-02T07:12:38.090Z,952.94
2016-11-02T07:13:38.111Z,952.94
2016-11-02T07:14:38.132Z,952.94
2016-11-02T07:15:38.151Z,953.01
2016-11-02T07:16:38.172Z,952.98
2016-11-02T07:17:38.192Z,953
2016-11-02T07:18:38.212Z,953
2016-11-02T07:19:38.231Z,953.02
2016-11-02T07:20:38.252Z,953.03
2016-11-02T07:21:38.274Z,953.07
2016-11-02T07:22:38.293Z,953.09
2016-11-02T07:23:38.314Z,953.06
2016-11-02T07:24:38.334Z,953.09
2016-11-02T07:25:38.356Z,953.04
2016-11-02T07:26:38.376Z,953.06
2016-11-02T07:27:38.395Z,953.08
2016-11-02T07:28:38.416Z,953.07
2016-11-02T07:29:38.436Z,953.09
2016-11-02T07:30:38.457Z,953.12
2016-11-02T07:31:38.477Z,953.1
2016-11-02T07:32:38.498Z,953.11
2016-11-02T07:33:38.517Z,953.09
2016-11-02T07:34:38.538Z,953.1
2016-11-02T07:35:38.559Z,953.09
2016-11-02T07:36:38.579Z,953.06
2016-11-02T07:37:38.604Z,953.1
2016-11-02T07:38:38.627Z,953.05
2016-11-02T07:39:38.641Z,953.08
2016-11-02T07:40:38.661Z,953.05
2016-11-02T07:41:38.684Z,953.07
2016-11-02T07:42:38.702Z,953.08
2016-11-02T07:43:38.723Z,953.11
2016-11-02T07:44:38.743Z,953.08
2016-11-02T07:45:38.763Z,953.12
2016-11-02T07:46:38.784Z,953.06
2016-11-02T07:47:38.805Z,953.04
2016-11-02T07:48:38.825Z,953.06
2016-11-02T07:49:38.845Z,953.09
2016-11-02T07:50:38.867Z,953.05
2016-11-02T07:51:38.893Z,953.01
2016-11-02T07:52:38.906Z,952.99
2016-11-02T07:53:38.927Z,953.04
2016-11-02T07:54:38.948Z,952.97
2016-11-02T07:55:38.967Z,952.99
2016-11-02T07:56:38.986Z,953
2016-11-02T07:57:39.009Z,953.08
2016-11-02T07:58:39.029Z,953.06
2016-11-02T07:59:39.049Z,953.04
2016-11-02T08:00:39.070Z,953.06
2016-11-02T08:01:39.091Z,953.06
2016-11-02T08:02:39.110Z,953.04
2016-11-02T08:03:39.131Z,953.08
2016-11-02T08:04:39.152Z,953.06
2016-11-02T08:05:39.174Z,953.1
2016-11-02T08:06:39.192Z,953.07
2016-11-02T08:07:39.215Z,953.08
2016-11-02T08:08:39.235Z,953.07
2016-11-02T08:09:39.255Z,953.06
2016-11-02T08:10:39.274Z,953.07
2016-11-02T08:11:39.295Z,953.1
2016-11-02T08:12:39.316Z,953.08
2016-11-02T08:13:39.336Z,953.1
2016-11-02T08:14:39.356Z,953.12
2016-11-02T08:15:39.383Z,953.14
2016-11-02T08:16:39.398Z,953.11
2016-11-02T08:17:39.417Z,953.11
2016-11-02T08:18:39.438Z,953.09
2016-11-02T08:19:39.459Z,953.14
2016-11-02T08:20:39.491Z,953.1
2016-11-02T08:21:39.500Z,953.14
2016-11-02T08:22:39.521Z,953.13
2016-11-02T08:23:39.541Z,953.17
2016-11-02T08:24:39.562Z,953.15
2016-11-02T08:25:39.583Z,953.08
2016-11-02T08:26:39.603Z,953.12
2016-11-02T08:27:39.625Z,953.18
2016-11-02T08:28:39.643Z,953.13
2016-11-02T08:29:39.665Z,953.19
2016-11-02T08:30:39.686Z,953.16
2016-11-02T08:31:39.709Z,953.2
2016-11-02T08:32:39.726Z,953.19
2016-11-02T08:33:39.747Z,953.16
2016-11-02T08:34:39.769Z,953.18
2016-11-02T08:35:39.787Z,953.15
2016-11-02T08:36:39.809Z,953.17
2016-11-02T08:37:39.829Z,953.18
2016-11-02T08:38:39.851Z,953.12
2016-11-02T08:39:39.870Z,953.16
2016-11-02T08:40:39.891Z,953.22
2016-11-02T08:41:39.911Z,953.18
2016-11-02T08:42:39.932Z,953.22
2016-11-02T08:43:39.952Z,953.24
2016-11-02T08:44:39.973Z,953.27
2016-11-02T08:45:39.994Z,953.27
2016-11-02T08:46:40.015Z,953.22
2016-11-02T08:47:40.035Z,953.26
2016-11-02T08:48:40.055Z,953.22
2016-11-02T08:49:40.075Z,953.2
2016-11-02T08:50:40.097Z,953.22
2016-11-02T08:51:40.116Z,953.23
2016-11-02T08:52:40.146Z,953.24
2016-11-02T08:53:40.163Z,953.24
2016-11-02T08:54:40.178Z,953.31
2016-11-02T08:55:40.199Z,953.27
2016-11-02T08:56:40.220Z,953.29
2016-11-02T08:57:40.240Z,953.21
2016-11-02T08:58:40.261Z,953.22
2016-11-02T08:59:40.281Z,953.27
2016-11-02T09:00:40.302Z,953.27
2016-11-02T09:01:40.322Z,953.24
2016-11-02T09:02:40.351Z,953.2
2016-11-02T09:03:40.365Z,953.23
2016-11-02T09:04:40.384Z,953.17
2016-11-02T09:05:40.405Z,953.17
2016-11-02T09:06:40.427Z,953.21
2016-11-02T09:07:40.447Z,953.15
2016-11-02T09:08:40.467Z,953.16
2016-11-02T09:09:40.488Z,953.16
2016-11-02T09:10:40.508Z,953.1
2016-11-02T09:11:40.529Z,953.13
2016-11-02T09:12:40.549Z,953.15
2016-11-02T09:13:40.569Z,953.13
2016-11-02T09:14:40.591Z,953.12
2016-11-02T09:15:40.612Z,953.11
2016-11-02T09:16:40.632Z,953.11
2016-11-02T09:17:40.653Z,953.1
2016-11-02T09:18:40.674Z,953.11
2016-11-02T09:19:40.695Z,953.07
2016-11-02T09:20:40.715Z,953.1
2016-11-02T09:21:40.736Z,953.08
2016-11-02T09:22:40.757Z,953.16
2016-11-02T09:23:40.776Z,953.09
2016-11-02T09:24:40.818Z,953.15
2016-11-02T09:25:40.819Z,953.09
2016-11-02T09:26:40.837Z,953.03
2016-11-02T09:27:40.859Z,953.11
2016-11-02T09:28:40.881Z,953.12
2016-11-02T09:29:40.902Z,953.1
2016-11-02T09:30:40.920Z,953.08
2016-11-02T09:31:40.941Z,953.11
2016-11-02T09:32:40.962Z,953.09
2016-11-02T09:33:40.983Z,953.06
2016-11-02T09:34:41.003Z,953.05
2016-11-02T09:35:41.023Z,953.12
2016-11-02T09:36:41.044Z,953.1
2016-11-02T09:37:41.064Z,953.16
2016-11-02T09:38:41.085Z,953.14
2016-11-02T09:39:41.112Z,953.17
2016-11-02T09:40:41.126Z,953.11
2016-11-02T09:41:41.144Z,953.15
2016-11-02T09:42:41.166Z,953.15
2016-11-02T09:43:41.187Z,953.14
2016-11-02T09:44:41.208Z,953.11
2016-11-02T09:45:41.227Z,953.13
2016-11-02T09:46:41.247Z,953.14
2016-11-02T09:47:41.270Z,953.13
2016-11-02T09:48:41.289Z,953.12
2016-11-02T09:49:41.308Z,953.03
2016-11-02T09:50:41.329Z,953.08
2016-11-02T09:51:41.350Z,953.07
2016-11-02T09:52:41.370Z,953.08
2016-11-02T09:53:41.391Z,953.09
2016-11-02T09:54:41.411Z,953.08
2016-11-02T09:55:41.432Z,953.07
2016-11-02T09:56:41.450Z,953.06
2016-11-02T09:57:41.471Z,953.05
2016-11-02T09:58:41.491Z,953.04
2016-11-02T09:59:41.512Z,953.06
2016-11-02T10:00:41.533Z,953.04
2016-11-02T10:01:41.553Z,953.04
2016-11-02T10:02:41.573Z,953.03
2016-11-02T10:03:41.594Z,953.04
2016-11-02T10:04:41.614Z,953.01
2016-11-02T10:05:41.634Z,953.04
2016-11-02T10:06:41.655Z,952.97
2016-11-02T10:07:41.675Z,953.03
2016-11-02T10:08:41.695Z,953
2016-11-02T10:09:41.724Z,953.01
2016-11-02T10:10:41.735Z,953.05
2016-11-02T10:11:41.756Z,953
2016-11-02T10:12:41.777Z,953.03
2016-11-02T10:13:41.797Z,953.03
2016-11-02T10:14:41.815Z,953.01
2016-11-02T10:15:41.837Z,953.03
2016-11-02T10:16:41.858Z,953.01
2016-11-02T10:17:41.879Z,953.04
2016-11-02T10:18:41.898Z,953.03
2016-11-02T10:19:41.919Z,953.15
2016-11-02T10:20:41.938Z,953.11
2016-11-02T10:21:41.960Z,953.09
2016-11-02T10:22:41.979Z,953.14
2016-11-02T10:23:42.000Z,953.07
2016-11-02T10:24:42.023Z,953.1
2016-11-02T10:25:42.042Z,953.1
2016-11-02T10:26:42.061Z,953.06
2016-11-02T10:27:42.083Z,953.1
2016-11-02T10:28:42.102Z,953.13
2016-11-02T10:29:42.121Z,953.24
2016-11-02T10:30:42.142Z,953.2
2016-11-02T10:31:42.162Z,953.1
2016-11-02T10:32:42.181Z,953.09
2016-11-02T10:33:42.201Z,953.05
2016-11-02T10:34:42.222Z,953.18
2016-11-02T10:35:42.243Z,953.24
2016-11-02T10:36:42.261Z,953.25
2016-11-02T10:37:42.282Z,953.12
2016-11-02T10:38:42.303Z,953.17
2016-11-02T10:39:42.325Z,953.16
2016-11-02T10:40:42.343Z,953.1
2016-11-02T10:41:42.364Z,953.14
2016-11-02T10:42:42.383Z,953.19
2016-11-02T10:43:42.402Z,953.2
2016-11-02T10:44:42.422Z,953.08
2016-11-02T10:45:42.442Z,953.21
2016-11-02T10:46:42.462Z,953.13
2016-11-02T10:47:42.502Z,953.12
2016-11-02T10:48:42.500Z,953.16
2016-11-02T10:49:42.523Z,953.07
2016-11-02T10:50:42.542Z,953.09
2016-11-02T10:51:42.561Z,953.11
2016-11-02T10:52:42.583Z,953.19
2016-11-02T10:53:42.600Z,953.17
2016-11-02T10:54:42.621Z,953.11
2016-11-02T10:55:42.659Z,953.19
2016-11-02T10:56:42.661Z,953.14
2016-11-02T10:57:42.679Z,953.09
2016-11-02T10:58:42.699Z,953.12
2016-11-02T10:59:42.718Z,953.14
2016-11-02T11:00:42.737Z,953.13
2016-11-02T11:01:42.757Z,953.08
2016-11-02T11:02:42.786Z,953.08
2016-11-02T11:03:42.796Z,953.12
2016-11-02T11:04:42.814Z,953.11
2016-11-02T11:05:42.834Z,953.04
2016-11-02T11:06:42.854Z,953.08
2016-11-02T11:07:42.874Z,953.09
2016-11-02T11:08:42.892Z,953.08
2016-11-02T11:09:42.911Z,953.03
2016-11-02T11:10:42.942Z,952.99
2016-11-02T11:11:42.955Z,953.02
2016-11-02T11:12:42.968Z,952.93
2016-11-02T11:13:42.988Z,952.92
2016-11-02T11:14:43.006Z,952.91
2016-11-02T11:15:43.025Z,952.98
2016-11-02T11:16:43.049Z,953
2016-11-02T11:17:43.068Z,952.96
2016-11-02T11:18:43.083Z,952.88
2016-11-02T11:19:43.113Z,952.9
2016-11-02T11:20:43.119Z,952.84
2016-11-02T11:21:43.140Z,952.86
2016-11-02T11:22:43.158Z,952.91
2016-11-02T11:23:43.176Z,952.88
2016-11-02T11:24:43.194Z,952.86
2016-11-02T11:25:43.223Z,952.92
2016-11-02T11:26:43.233Z,952.91
2016-11-02T11:27:43.251Z,952.98
2016-11-02T11:28:43.272Z,952.95
2016-11-02T11:29:43.290Z,952.96
2016-11-02T11:30:43.308Z,952.97
2016-11-02T11:31:43.327Z,952.94
2016-11-02T11:32:43.349Z,952.96
2016-11-02T11:33:43.364Z,952.98
2016-11-02T11:34:43.382Z,952.97
2016-11-02T11:35:43.399Z,953.07
2016-11-02T11:36:43.420Z,953.04
2016-11-02T11:37:43.438Z,953.04
2016-11-02T11:38:43.456Z,953.04
2016-11-02T11:39:43.475Z,953.02
2016-11-02T11:40:43.506Z,952.97
2016-11-02T11:41:43.513Z,952.99
2016-11-02T11:42:43.530Z,952.99
2016-11-02T11:43:43.549Z,953.04
2016-11-02T11:44:43.567Z,953
2016-11-02T11:45:43.585Z,953.02
2016-11-02T11:46:43.604Z,953.01
2016-11-02T11:47:43.630Z,953.08
2016-11-02T11:48:43.642Z,953.02
2016-11-02T11:49:43.658Z,953.07
2016-11-02T11:50:43.677Z,953.06
2016-11-02T11:51:43.696Z,953.05
2016-11-02T11:52:43.714Z,953.01
2016-11-02T11:53:43.731Z,953
2016-11-02T11:54:43.750Z,953.05
2016-11-02T11:55:43.789Z,953.07
2016-11-02T11:56:43.785Z,953.03
2016-11-02T11:57:43.804Z,953.06
2016-11-02T11:58:43.822Z,953.05
2016-11-02T11:59:43.842Z,953.02
2016-11-02T12:00:43.858Z,953.09
2016-11-02T12:01:43.877Z,953.1
2016-11-02T12:02:43.911Z,953.15
2016-11-02T12:03:43.912Z,953.14
2016-11-02T12:04:43.928Z,953.15
2016-11-02T12:05:43.948Z,953.2
2016-11-02T12:06:43.966Z,953.17
2016-11-02T12:07:43.983Z,953.22
2016-11-02T12:08:44.002Z,953.14
2016-11-02T12:09:44.019Z,953.14
2016-11-02T12:10:44.038Z,953.13
2016-11-02T12:11:44.055Z,953.1
2016-11-02T12:12:44.073Z,953.1
2016-11-02T12:13:44.091Z,953.05
2016-11-02T12:14:44.109Z,953.09
2016-11-02T12:15:44.126Z,953.15
2016-11-02T12:16:44.144Z,953.11
2016-11-02T12:17:44.162Z,953.07
2016-11-02T12:18:44.180Z,953.09
2016-11-02T12:19:44.197Z,953.08
2016-11-02T12:20:44.219Z,953.04
2016-11-02T12:21:44.233Z,953.03
2016-11-02T12:22:44.250Z,953.04
2016-11-02T12:23:44.267Z,953.12
2016-11-02T12:24:44.284Z,953.12
2016-11-02T12:25:44.303Z,953.09
2016-11-02T12:26:44.322Z,953.12
2016-11-02T12:27:44.340Z,953.15
2016-11-02T12:28:44.357Z,953.2
2016-11-02T12:29:44.374Z,953.18
2016-11-02T12:30:44.391Z,953.16
2016-11-02T12:31:44.411Z,953.16